.
WxDataArchive / Data Records for 2007-05-08
2007-05-07 May 2007 2007-05-09

Data Records for Tuesday, 08 May 2007

Time	Temp	Chill	HIndex	Humid	Dewpt	 Wind 	HiWind	WindDir	Rain 	Barom 
-----	----	-----	------	-----	-----	------	------	-------	-----	----- 
00:00	53.8	53.8	53.8	59	39.8	0	0	---	0.00	30.088 
00:05	53.6	53.6	53.6	59	39.6	0	0	---	0.00	30.084 
00:10	53.6	53.6	53.6	59	39.6	0	1	112	0.00	30.081 
00:15	53.8	53.8	53.8	59	39.8	0	1	112	0.00	30.074 
00:20	54.4	54.4	54.4	58	39.9	1	2	112	0.00	30.069 
00:25	54.8	54.8	54.8	58	40.3	0	1	112	0.00	30.069 
00:30	54.8	54.8	54.8	56	39.4	0	1	112	0.00	30.068 
00:35	55.0	55.0	55.0	57	40.0	0	0	---	0.00	30.068 
00:40	55.0	55.0	55.0	56	39.6	0	0	---	0.00	30.068 
00:45	55.0	55.0	55.0	54	38.7	0	0	---	0.00	30.067 
00:50	55.1	55.1	55.1	54	38.8	0	0	---	0.00	30.068 
00:55	55.1	55.1	55.1	54	38.8	0	0	---	0.00	30.068 
01:00	55.0	55.0	55.0	53	38.2	0	0	---	0.00	30.068 
01:05	55.0	55.0	55.0	52	37.7	0	0	---	0.00	30.067 
01:10	54.8	54.8	54.8	52	37.5	0	0	---	0.00	30.066 
01:15	54.8	54.8	54.8	54	38.5	0	0	---	0.00	30.067 
01:20	54.8	54.8	54.8	55	38.9	0	0	---	0.00	30.065 
01:25	54.7	54.7	54.7	55	38.9	0	0	---	0.00	30.062 
01:30	54.5	54.5	54.5	56	39.1	0	0	---	0.00	30.062 
01:35	54.4	54.4	54.4	54	38.1	0	0	---	0.00	30.062 
01:40	54.2	54.2	54.2	56	38.8	0	0	---	0.00	30.058 
01:45	54.5	54.5	54.5	54	38.2	0	1	112	0.00	30.054 
01:50	54.8	54.8	54.8	56	39.4	0	0	---	0.00	30.054 
01:55	54.8	54.8	54.8	54	38.5	0	0	---	0.00	30.052 
02:00	55.0	55.0	55.0	53	38.2	0	1	112	0.00	30.051 
02:05	55.6	55.6	55.6	50	37.3	0	2	112	0.00	30.048 
02:10	56.3	56.3	56.3	49	37.4	0	1	112	0.00	30.048 
02:15	56.7	56.7	56.7	50	38.3	0	0	---	0.00	30.046 
02:20	57.0	57.0	57.0	47	37.0	0	1	112	0.00	30.045 
02:25	57.3	57.3	57.3	47	37.2	0	1	112	0.00	30.043 
02:30	57.5	57.5	57.5	47	37.4	0	1	112	0.00	30.042 
02:35	57.8	57.8	57.8	46	37.2	0	1	112	0.00	30.036 
02:40	58.0	58.0	58.0	46	37.3	0	1	112	0.00	30.034 
02:45	58.0	58.0	58.0	46	37.3	0	0	---	0.00	30.035 
02:50	58.0	58.0	58.0	47	37.9	0	0	---	0.00	30.037 
02:55	57.8	57.8	57.8	47	37.7	0	0	---	0.00	30.035 
03:00	57.6	57.6	57.6	48	38.1	0	1	112	0.00	30.033 
03:05	57.5	57.5	57.5	48	38.0	0	0	---	0.00	30.033 
03:10	57.5	57.5	57.5	47	37.4	0	2	112	0.00	30.033 
03:15	57.8	57.8	57.8	47	37.7	0	1	112	0.00	30.032 
03:20	58.0	58.0	58.0	47	37.9	0	1	112	0.00	30.032 
03:25	58.1	58.1	58.1	48	38.5	0	1	112	0.00	30.035 
03:30	58.0	58.0	58.0	48	38.4	0	1	112	0.00	30.035 
03:35	57.8	57.8	57.8	48	38.2	0	0	---	0.00	30.037 
03:40	57.6	57.6	57.6	48	38.1	0	1	112	0.00	30.034 
03:45	57.8	57.8	57.8	49	38.8	0	1	112	0.00	30.036 
03:50	58.0	58.0	58.0	48	38.4	0	1	135	0.00	30.036 
03:55	58.0	58.0	58.0	48	38.4	0	1	135	0.00	30.033 
04:00	58.1	58.1	58.1	48	38.5	0	2	135	0.00	30.033 
04:05	58.1	58.1	58.1	48	38.5	0	1	135	0.00	30.036 
04:10	58.3	58.3	58.3	48	38.7	0	3	225	0.00	30.035 
04:15	58.3	58.3	58.3	48	38.7	0	2	225	0.00	30.035 
04:20	58.1	58.1	58.1	48	38.5	0	1	225	0.00	30.037 
04:25	58.3	58.3	58.3	47	38.2	0	1	225	0.00	30.037 
04:30	58.3	58.3	58.3	47	38.2	0	1	225	0.00	30.037 
04:35	58.3	58.3	58.3	48	38.7	0	1	225	0.00	30.033 
04:40	58.1	58.1	58.1	48	38.5	0	2	225	0.00	30.033 
04:45	58.1	58.1	58.1	48	38.5	0	2	225	0.00	30.033 
04:50	58.1	58.1	58.1	48	38.5	0	1	225	0.00	30.032 
04:55	58.0	58.0	58.0	49	38.9	0	1	225	0.00	30.030 
05:00	57.8	57.8	57.8	49	38.8	0	1	225	0.00	30.029 
05:05	57.6	57.6	57.6	49	38.6	0	1	225	0.00	30.030 
05:10	57.5	57.5	57.5	50	39.0	0	1	225	0.00	30.030 
05:15	57.5	57.5	57.5	50	39.0	0	1	225	0.00	30.030 
05:20	57.3	57.3	57.3	50	38.8	0	0	---	0.00	30.028 
05:25	57.2	57.2	57.2	51	39.2	0	0	---	0.00	30.030 
05:30	57.0	57.0	57.0	51	39.1	0	0	---	0.00	30.031 
05:35	57.0	57.0	57.0	51	39.1	0	1	225	0.00	30.029 
05:40	56.9	56.9	56.9	51	39.0	0	0	---	0.00	30.031 
05:45	56.9	56.9	56.9	52	39.5	0	1	225	0.00	30.031 
05:50	56.9	56.9	56.9	52	39.5	0	1	225	0.00	30.030 
05:55	56.9	56.9	56.9	52	39.5	0	1	225	0.00	30.032 
06:00	56.9	56.9	56.9	52	39.5	0	0	---	0.00	30.032 
06:05	57.0	57.0	57.0	52	39.5	0	0	---	0.00	30.035 
06:10	57.0	57.0	57.0	53	40.0	0	2	225	0.00	30.036 
06:15	57.3	57.3	57.3	53	40.3	0	1	225	0.00	30.035 
06:20	57.6	57.6	57.6	53	40.6	0	1	225	0.00	30.034 
06:25	58.0	58.0	58.0	52	40.5	0	2	225	0.00	30.035 
06:30	58.6	58.6	58.6	51	40.5	0	1	225	0.00	30.035 
06:35	59.2	59.2	59.2	50	40.6	0	1	225	0.00	30.040 
06:40	59.5	59.5	59.5	50	40.8	0	2	225	0.00	30.044 
06:45	60.1	60.1	60.1	50	41.4	0	1	225	0.00	30.044 
06:50	60.5	60.5	60.5	48	40.7	0	3	225	0.00	30.046 
06:55	61.0	61.0	61.0	49	41.7	0	2	180	0.00	30.046 
07:00	61.6	61.6	61.6	47	41.2	0	2	270	0.00	30.045 
07:05	62.1	62.1	62.1	46	41.1	1	4	270	0.00	30.050 
07:10	62.6	62.6	62.6	46	41.5	1	4	225	0.00	30.051 
07:15	62.9	62.9	62.9	46	41.8	1	4	90	0.00	30.050 
07:20	63.4	63.4	63.4	48	43.4	0	1	90	0.00	30.051 
07:25	63.7	63.7	63.7	44	41.4	1	3	248	0.00	30.049 
07:30	64.0	64.0	64.0	44	41.6	1	4	248	0.00	30.050 
07:35	64.3	64.3	64.3	44	41.9	1	4	248	0.00	30.053 
07:40	64.7	64.7	64.7	43	41.7	1	2	248	0.00	30.053 
07:45	65.2	65.2	65.2	48	45.0	1	5	248	0.00	30.056 
07:50	65.6	65.6	65.6	43	42.5	1	5	248	0.00	30.055 
07:55	66.0	66.0	66.0	45	44.0	2	6	248	0.00	30.052 
08:00	66.4	66.4	66.4	45	44.4	1	6	248	0.00	30.048 
08:05	66.9	66.9	66.9	45	44.9	1	3	270	0.00	30.052 
08:10	67.3	67.3	67.3	45	45.2	1	5	248	0.00	30.053 
08:15	67.8	67.8	67.8	45	45.7	1	4	248	0.00	30.055 
08:20	68.1	68.1	68.1	44	45.4	2	4	248	0.00	30.056 
08:25	68.4	68.4	68.4	44	45.6	2	4	248	0.00	30.059 
08:30	68.9	68.9	68.9	45	46.7	1	3	248	0.00	30.057 
08:35	69.4	69.4	69.4	44	46.5	2	4	248	0.00	30.059 
08:40	69.8	69.8	69.8	44	46.9	2	4	248	0.00	30.059 
08:45	70.1	70.1	70.1	45	47.8	2	5	248	0.00	30.058 
08:50	70.3	70.3	70.3	46	48.5	2	5	270	0.00	30.059 
08:55	70.4	70.4	70.4	46	48.6	2	7	248	0.00	30.061 
09:00	70.6	70.6	70.6	45	48.2	2	4	248	0.00	30.060 
09:05	70.8	70.8	70.8	46	49.0	2	6	248	0.00	30.064 
09:10	70.9	70.9	70.9	47	49.7	2	4	248	0.00	30.061 
09:15	71.6	71.6	71.6	49	51.4	2	3	248	0.00	30.056 
09:20	72.3	72.3	72.3	49	52.1	1	3	248	0.00	30.056 
09:25	72.8	72.8	72.8	48	52.0	2	6	248	0.00	30.052 
09:30	73.2	73.2	73.2	50	53.4	2	4	248	0.00	30.050 
09:35	73.3	73.3	73.3	49	53.0	2	6	248	0.00	30.049 
09:40	73.7	73.7	73.7	49	53.3	2	4	248	0.00	30.047 
09:45	73.9	73.9	73.9	48	53.0	2	4	248	0.00	30.045 
09:50	74.4	74.4	74.4	52	55.6	1	5	270	0.00	30.044 
09:55	74.7	74.7	74.7	52	55.9	2	4	270	0.00	30.044 
10:00	74.9	74.9	74.9	52	56.1	2	5	248	0.00	30.045 
10:05	75.4	75.4	77.8	52	56.5	1	3	248	0.00	30.047 
10:10	76.0	76.0	78.1	51	56.5	1	4	248	0.00	30.047 
10:15	76.0	76.0	78.1	50	56.0	2	4	248	0.00	30.046 
10:20	76.3	76.3	78.2	52	57.4	1	4	248	0.00	30.045 
10:25	76.5	76.5	78.4	54	58.6	1	3	248	0.00	30.041 
10:30	76.7	76.7	78.5	54	58.8	1	3	248	0.00	30.039 
10:35	77.0	77.0	78.6	51	57.5	1	2	248	0.00	30.039 
10:40	77.2	77.2	78.8	53	58.7	1	5	248	0.00	30.037 
10:45	77.7	77.7	79.1	52	58.6	1	3	0	0.00	30.035 
10:50	78.3	78.3	79.6	52	59.2	1	3	248	0.00	30.033 
10:55	78.8	78.8	79.9	52	59.7	1	2	248	0.00	30.031 
11:00	79.2	79.2	80.1	50	58.9	1	4	225	0.00	30.029 
11:05	79.4	79.4	80.4	51	59.7	1	3	90	0.00	30.034 
11:10	79.4	79.4	80.3	50	59.1	1	4	90	0.00	30.034 
11:15	79.6	79.6	80.5	50	59.3	1	3	68	0.00	30.031 
11:20	79.6	79.6	80.5	50	59.3	1	3	225	0.00	30.033 
11:25	79.4	79.4	80.2	49	58.5	1	3	248	0.00	30.039 
11:30	79.8	79.8	80.8	52	60.6	1	4	248	0.00	30.036 
11:35	79.9	79.9	80.7	50	59.6	1	4	112	0.00	30.034 
11:40	80.3	80.3	81.1	50	59.9	0	2	112	0.00	30.030 
11:45	80.9	80.9	81.8	51	61.0	1	4	112	0.00	30.029 
11:50	80.7	80.7	81.4	50	60.3	1	3	135	0.00	30.030 
11:55	80.9	80.9	81.8	51	61.0	1	5	225	0.00	30.028 
12:00	81.4	81.4	82.3	51	61.5	0	2	225	0.00	30.028 
12:05	81.6	81.6	82.9	54	63.3	1	3	248	0.00	30.025 
12:10	82.0	82.0	82.9	51	62.1	1	4	248	0.00	30.024 
12:15	81.8	81.8	82.7	51	61.9	1	4	248	0.00	30.022 
12:20	81.8	81.8	82.7	51	61.9	1	2	270	0.00	30.022 
12:25	82.0	82.0	82.9	51	62.1	2	6	292	0.00	30.019 
12:30	82.4	82.4	83.4	51	62.4	0	1	292	0.00	30.013 
12:35	82.6	82.6	83.8	52	63.2	1	2	292	0.00	30.013 
12:40	82.8	82.8	83.8	51	62.8	0	2	292	0.00	30.011 
12:45	83.0	83.0	84.1	51	63.0	1	3	0	0.00	30.010 
12:50	83.2	83.2	84.1	50	62.6	1	3	315	0.00	30.009 
12:55	83.2	83.2	84.1	50	62.6	1	3	90	0.00	30.010 
13:00	83.6	83.6	84.4	49	62.4	1	4	68	0.00	30.010 
13:05	83.8	83.8	85.7	54	65.3	1	3	68	0.00	30.008 
13:10	84.1	84.1	84.6	47	61.7	1	3	248	0.00	30.007 
13:15	84.1	84.1	84.8	48	62.3	0	1	112	0.00	30.008 
13:20	84.5	84.5	85.3	48	62.6	1	3	248	0.00	30.005 
13:25	84.3	84.3	85.5	50	63.6	1	3	248	0.00	30.000 
13:30	84.0	84.0	85.3	51	63.9	1	3	248	0.00	30.002 
13:35	83.2	83.2	84.1	50	62.6	1	2	248	0.00	30.004 
13:40	83.6	83.6	84.8	51	63.5	1	3	248	0.00	30.002 
13:45	84.0	84.0	84.7	48	62.2	2	5	112	0.00	29.998 
13:50	84.5	84.5	85.8	50	63.8	0	2	112	0.00	29.995 
13:55	84.5	84.5	85.1	47	62.0	2	5	112	0.00	29.992 
14:00	84.7	84.7	86.3	51	64.5	1	3	112	0.00	29.991 
14:05	85.1	85.1	86.4	49	63.8	0	2	202	0.00	29.989 
14:10	84.3	84.3	85.1	48	62.4	1	4	270	0.00	29.989 
14:15	84.0	84.0	84.7	48	62.2	0	2	270	0.00	29.988 
14:20	84.0	84.0	85.1	50	63.3	0	1	270	0.00	29.986 
14:25	84.1	84.1	84.8	48	62.3	0	3	248	0.00	29.982 
14:30	84.1	84.1	85.0	49	62.8	0	2	248	0.00	29.982 
14:35	84.1	84.1	85.3	50	63.4	2	3	248	0.00	29.982 
14:40	83.8	83.8	84.7	49	62.6	0	2	270	0.00	29.981 
14:45	83.4	83.4	84.0	48	61.6	0	1	270	0.00	29.985 
14:50	83.6	83.6	84.6	50	63.0	0	1	270	0.00	29.983 
14:55	83.8	83.8	84.9	50	63.1	0	1	270	0.00	29.979 
15:00	84.5	84.5	85.8	50	63.8	0	2	270	0.00	29.977 
15:05	84.5	84.5	85.3	48	62.6	0	2	292	0.00	29.975 
15:10	84.7	84.7	85.4	47	62.2	0	2	292	0.00	29.974 
15:15	84.5	84.5	85.3	48	62.6	0	2	315	0.00	29.974 
15:20	84.7	84.7	85.8	49	63.4	0	1	315	0.00	29.971 
15:25	84.3	84.3	84.9	47	61.8	0	2	315	0.00	29.969 
15:30	84.0	84.0	84.5	47	61.6	0	2	315	0.00	29.968 
15:35	83.8	83.8	84.7	49	62.6	0	1	315	0.00	29.965 
15:40	83.4	83.4	84.2	49	62.2	0	1	315	0.00	29.964 
15:45	83.4	83.4	84.6	51	63.3	0	1	315	0.00	29.962 
15:50	83.6	83.6	84.6	50	63.0	0	1	315	0.00	29.959 
15:55	83.6	83.6	84.6	50	63.0	0	2	315	0.00	29.958 
16:00	83.6	83.6	84.2	48	61.8	0	2	315	0.00	29.957 
16:05	83.4	83.4	83.8	47	61.0	0	2	315	0.00	29.959 
16:10	83.2	83.2	83.6	47	60.8	0	1	315	0.00	29.959 
16:15	83.4	83.4	83.7	46	60.4	0	2	315	0.00	29.957 
16:20	84.0	84.0	84.5	47	61.6	0	1	315	0.00	29.951 
16:25	84.1	84.1	84.3	45	60.4	0	0	---	0.00	29.949 
16:30	84.1	84.1	84.4	46	61.1	0	1	315	0.00	29.948 
16:35	84.0	84.0	84.5	47	61.6	0	0	---	0.00	29.949 
16:40	84.0	84.0	84.7	48	62.2	0	0	---	0.00	29.949 
16:45	83.8	83.8	84.5	48	62.0	0	0	---	0.00	29.947 
16:50	83.6	83.6	84.2	48	61.8	0	2	315	0.00	29.945 
16:55	83.2	83.2	84.1	50	62.6	0	0	---	0.00	29.946 
17:00	82.8	82.8	83.8	51	62.8	0	1	315	0.00	29.945 
17:05	82.4	82.4	83.4	51	62.4	0	2	315	0.00	29.947 
17:10	82.0	82.0	83.1	52	62.6	0	2	315	0.00	29.947 
17:15	82.0	82.0	83.1	52	62.6	0	1	315	0.00	29.948 
17:20	81.8	81.8	83.0	53	63.0	0	1	315	0.00	29.950 
17:25	81.6	81.6	82.8	53	62.8	0	2	315	0.00	29.950 
17:30	81.2	81.2	83.3	60	66.0	0	2	315	0.00	29.957 
17:35	79.4	79.4	81.7	67	67.5	1	4	248	0.03	29.962 
17:40	75.4	75.4	76.8	73	66.1	3	7	248	0.07	29.968 
17:45	73.0	73.0	73.0	80	66.5	2	6	248	0.06	29.975 
17:50	71.5	71.5	71.5	80	65.0	3	7	90	0.03	29.984 
17:55	71.1	71.1	71.1	79	64.2	3	6	112	0.01	29.987 
18:00	70.8	70.8	70.8	82	65.0	2	5	112	0.00	29.985 
18:05	70.4	70.4	70.4	83	65.0	1	4	90	0.02	29.980 
18:10	69.9	69.9	69.9	85	65.2	0	2	68	0.01	29.972 
18:15	69.4	69.4	69.4	87	65.4	0	1	68	0.01	29.983 
18:20	69.1	69.1	69.1	88	65.4	1	3	68	0.00	29.995 
18:25	68.8	68.8	68.8	89	65.4	1	3	248	0.02	29.997 
18:30	68.4	68.4	68.4	90	65.3	0	1	248	0.00	29.997 
18:35	68.1	68.1	68.1	90	65.0	0	1	248	0.00	29.993 
18:40	68.1	68.1	68.1	91	65.4	0	0	---	0.01	29.984 
18:45	68.1	68.1	68.1	91	65.4	0	0	---	0.00	29.983 
18:50	67.9	67.9	67.9	92	65.5	0	0	---	0.01	29.983 
18:55	67.9	67.9	67.9	92	65.5	0	0	---	0.01	29.982 
19:00	67.8	67.8	67.8	92	65.4	0	0	---	0.01	29.978 
19:05	67.8	67.8	67.8	93	65.7	0	0	---	0.00	29.974 
19:10	67.9	67.9	67.9	93	65.8	0	0	---	0.00	29.976 
19:15	67.8	67.8	67.8	93	65.7	0	0	---	0.01	29.976 
19:20	67.8	67.8	67.8	94	66.0	0	0	---	0.00	29.973 
19:25	67.8	67.8	67.8	94	66.0	0	0	---	0.01	29.973 
19:30	67.8	67.8	67.8	94	66.0	0	0	---	0.02	29.971 
19:35	67.8	67.8	67.8	94	66.0	0	0	---	0.01	29.965 
19:40	67.8	67.8	67.8	95	66.3	0	1	248	0.00	29.963 
19:45	67.8	67.8	67.8	95	66.3	0	1	248	0.01	29.963 
19:50	67.9	67.9	67.9	95	66.4	0	1	248	0.00	29.964 
19:55	67.8	67.8	67.8	95	66.3	0	1	248	0.00	29.960 
20:00	67.8	67.8	67.8	95	66.3	0	1	248	0.00	29.958 
20:05	67.6	67.6	67.6	95	66.1	0	0	---	0.00	29.950 
20:10	67.6	67.6	67.6	95	66.1	0	0	---	0.00	29.950 
20:15	67.6	67.6	67.6	95	66.1	0	0	---	0.00	29.946 
20:20	67.6	67.6	67.6	95	66.1	0	0	---	0.00	29.946 
20:25	67.6	67.6	67.6	95	66.1	0	0	---	0.00	29.945 
20:30	67.6	67.6	67.6	95	66.1	0	0	---	0.00	29.945 
20:35	67.4	67.4	67.4	95	65.9	0	0	---	0.00	29.945 
20:40	67.4	67.4	67.4	95	65.9	0	0	---	0.00	29.945 
20:45	67.3	67.3	67.3	95	65.8	0	0	---	0.00	29.945 
20:50	67.3	67.3	67.3	96	66.1	0	0	---	0.00	29.946 
20:55	67.1	67.1	67.1	95	65.6	0	0	---	0.00	29.946 
21:00	66.9	66.9	66.9	96	65.7	0	0	---	0.00	29.948 
21:05	66.8	66.8	66.8	96	65.6	0	0	---	0.00	29.945 
21:10	66.6	66.6	66.6	96	65.4	0	0	---	0.00	29.946 
21:15	66.6	66.6	66.6	96	65.4	0	0	---	0.00	29.947 
21:20	66.6	66.6	66.6	96	65.4	0	0	---	0.00	29.950 
21:25	66.6	66.6	66.6	96	65.4	0	0	---	0.00	29.951 
21:30	66.8	66.8	66.8	96	65.6	0	0	---	0.00	29.950 
21:35	66.6	66.6	66.6	96	65.4	0	0	---	0.00	29.949 
21:40	66.8	66.8	66.8	96	65.6	0	0	---	0.00	29.948 
21:45	66.6	66.6	66.6	96	65.4	0	0	---	0.00	29.950 
21:50	66.4	66.4	66.4	96	65.2	0	0	---	0.00	29.951 
21:55	66.4	66.4	66.4	96	65.2	0	0	---	0.00	29.951 
22:00	66.3	66.3	66.3	96	65.1	0	1	248	0.00	29.954 
22:05	66.3	66.3	66.3	96	65.1	0	1	248	0.00	29.954 
22:10	66.3	66.3	66.3	96	65.1	0	1	248	0.00	29.950 
22:15	66.1	66.1	66.1	97	65.2	0	0	---	0.00	29.950 
22:20	66.1	66.1	66.1	97	65.2	0	1	248	0.00	29.950 
22:25	66.0	66.0	66.0	97	65.1	0	0	---	0.00	29.947 
22:30	66.0	66.0	66.0	97	65.1	0	0	---	0.00	29.946 
22:35	66.1	66.1	66.1	97	65.2	0	0	---	0.00	29.948 
22:40	66.1	66.1	66.1	97	65.2	0	0	---	0.00	29.946 
22:45	66.3	66.3	66.3	97	65.4	0	0	---	0.00	29.944 
22:50	66.3	66.3	66.3	97	65.4	0	0	---	0.00	29.941 
22:55	66.3	66.3	66.3	97	65.4	0	0	---	0.00	29.940 
23:00	66.3	66.3	66.3	97	65.4	0	0	---	0.00	29.939 
23:05	66.3	66.3	66.3	97	65.4	0	0	---	0.00	29.937 
23:10	66.3	66.3	66.3	97	65.4	0	0	---	0.00	29.935 
23:15	66.1	66.1	66.1	97	65.2	0	1	248	0.00	29.933 
23:20	66.1	66.1	66.1	97	65.2	0	0	---	0.00	29.929 
23:25	65.8	65.8	65.8	97	64.9	0	0	---	0.00	29.927 
23:30	65.6	65.6	65.6	97	64.7	0	0	---	0.00	29.927 
23:35	65.5	65.5	65.5	97	64.6	0	0	---	0.00	29.928 
23:40	65.3	65.3	65.3	97	64.4	0	0	---	0.00	29.930 
23:45	65.5	65.5	65.5	97	64.6	0	0	---	0.00	29.926 
23:50	65.5	65.5	65.5	97	64.6	0	0	---	0.00	29.925 
23:55	65.5	65.5	65.5	97	64.6	0	0	---	0.00	29.924 

CoCoRaHS
IN-AL-39
A2 Web Hosting
Creative Commons License
GoDaddy
Look for:

loaded 2017-12-12 02:00:53 • last modified 2010-11-18 10:43:29
Privacy PolicyDisclaimer
• wx.awcolley.com is powered by PmWiki v.2002016 •
• all content (unless otherwise noted) © 2017 A W Colley